Time;durP1;ratioP1;P1;durP2;ratioP2;P2;SDS_P1;SDS_P2;PMS_P1;PMS_P2;Temp;Humidity;BMP_temperature;BMP_pressure;BME280_temperature;BME280_humidity;BME280_pressure;Samples;Min_cycle;Max_cycle;Signal;HPM_P1;HPM_P2
2023/03/02 00:01:35;;;;;;;19.38;12.52;;;;;;;2.69;58.44;102338.25;5052979;28;20493;-39
2023/03/02 00:04:03;;;;;;;19.70;12.60;;;;;;;2.63;57.71;102330.91;5052818;28;20029;-39
2023/03/02 00:06:30;;;;;;;20.73;13.23;;;;;;;2.66;58.30;102346.88;5052841;28;20037;-40
2023/03/02 00:08:59;;;;;;;21.05;12.82;;;;;;;2.63;58.60;102350.88;5052932;28;20376;-38
2023/03/02 00:11:26;;;;;;;20.17;12.85;;;;;;;2.59;59.46;102330.50;5052846;28;20053;-39
2023/03/02 00:13:51;;;;;;;20.65;13.23;;;;;;;2.62;58.43;102342.88;5052712;28;20111;-38
2023/03/02 00:16:17;;;;;;;20.52;12.95;;;;;;;2.60;58.70;102348.56;5052525;28;20562;-38
2023/03/02 00:18:42;;;;;;;20.75;13.40;;;;;;;2.62;58.62;102340.16;5052386;28;20029;-38
2023/03/02 00:21:10;;;;;;;21.02;13.23;;;;;;;2.58;59.17;102342.47;5052625;28;20490;-38
2023/03/02 00:23:37;;;;;;;20.48;13.02;;;;;;;2.56;58.43;102338.28;5052958;28;20029;-38
2023/03/02 00:26:03;;;;;;;20.02;13.25;;;;;;;2.50;58.46;102340.00;5052518;28;20451;-38
2023/03/02 00:28:29;;;;;;;21.52;13.18;;;;;;;2.49;59.40;102335.56;5052646;28;20025;-39
2023/03/02 00:30:55;;;;;;;21.33;13.85;;;;;;;2.45;58.64;102337.91;5052521;28;20400;-39
2023/03/02 00:33:20;;;;;;;21.00;13.00;;;;;;;2.43;59.47;102325.53;5052228;28;20066;-39
2023/03/02 00:35:46;;;;;;;21.50;12.93;;;;;;;2.47;59.23;102337.69;5052358;28;20025;-38
2023/03/02 00:38:12;;;;;;;20.38;12.70;;;;;;;2.48;58.53;102345.69;5052472;28;20036;-39
2023/03/02 00:40:43;;;;;;;21.05;12.60;;;;;;;2.42;59.89;102340.22;5052375;28;20031;-39
2023/03/02 00:43:08;;;;;;;21.30;13.00;;;;;;;2.41;59.31;102344.84;5052334;28;20036;-39
2023/03/02 00:45:34;;;;;;;21.33;13.27;;;;;;;2.37;58.91;102345.47;5052240;28;20469;-38
2023/03/02 00:47:59;;;;;;;21.88;13.30;;;;;;;2.29;58.71;102325.53;5052241;28;20043;-38
2023/03/02 00:50:24;;;;;;;20.05;12.82;;;;;;;2.32;59.28;102338.78;5052216;28;20457;-38
2023/03/02 00:52:49;;;;;;;21.00;13.30;;;;;;;2.28;58.81;102329.31;5052075;28;20095;-38
2023/03/02 00:55:15;;;;;;;21.80;13.60;;;;;;;2.20;58.89;102326.81;5052282;28;20029;-39
2023/03/02 00:57:40;;;;;;;20.13;13.07;;;;;;;2.15;59.53;102329.38;5051922;28;20033;-39
2023/03/02 01:00:06;;;;;;;20.80;12.90;;;;;;;2.13;60.37;102340.47;5051314;28;20476;-40
2023/03/02 01:02:31;;;;;;;20.83;13.40;;;;;;;2.07;59.86;102340.50;5052069;28;20033;-39
2023/03/02 01:04:56;;;;;;;20.80;13.50;;;;;;;2.01;60.14;102332.09;5052002;28;20152;-39
2023/03/02 01:07:25;;;;;;;20.63;12.98;;;;;;;1.99;60.38;102342.38;5051896;28;20028;-39
2023/03/02 01:09:51;;;;;;;19.98;12.73;;;;;;;1.94;60.80;102330.44;5052083;28;20033;-39
2023/03/02 01:12:17;;;;;;;20.95;13.32;;;;;;;1.92;60.14;102332.56;5033976;28;20067;-38
2023/03/02 01:14:46;;;;;;;21.20;13.18;;;;;;;1.81;60.35;102325.81;5051872;28;20142;-39
2023/03/02 01:17:13;;;;;;;20.67;12.90;;;;;;;1.86;61.18;102335.06;5052206;28;20177;-38
2023/03/02 01:19:39;;;;;;;21.48;13.70;;;;;;;1.83;61.56;102329.19;5051843;28;20029;-38
2023/03/02 01:22:05;;;;;;;20.70;13.45;;;;;;;1.72;61.01;102330.66;5051999;28;20029;-39
2023/03/02 01:24:31;;;;;;;21.08;14.20;;;;;;;1.73;61.81;102331.50;5051752;28;20037;-40
2023/03/02 01:26:56;;;;;;;21.15;13.75;;;;;;;1.68;61.47;102337.59;5051783;28;20047;-39
2023/03/02 01:29:22;;;;;;;21.52;13.75;;;;;;;1.66;61.39;102332.34;5051778;28;20028;-38
2023/03/02 01:31:47;;;;;;;21.10;13.48;;;;;;;1.60;62.81;102327.72;5051700;28;20528;-39
2023/03/02 01:34:12;;;;;;;20.88;12.85;;;;;;;1.58;62.58;102329.81;5051778;28;20036;-38
2023/03/02 01:36:38;;;;;;;22.70;13.57;;;;;;;1.55;62.88;102319.31;5051774;28;20029;-39
2023/03/02 01:39:03;;;;;;;21.27;13.65;;;;;;;1.51;62.44;102316.19;5051527;28;20373;-38
2023/03/02 01:41:30;;;;;;;21.00;13.10;;;;;;;1.47;62.60;102316.81;5051763;28;20374;-40
2023/03/02 01:43:55;;;;;;;22.83;13.65;;;;;;;1.38;63.46;102306.09;5051732;28;20033;-37
2023/03/02 01:46:24;;;;;;;20.75;13.13;;;;;;;1.33;63.61;102302.31;5051487;28;20383;-38
2023/03/02 01:49:05;;;;;;;21.35;13.50;;;;;;;1.32;63.43;102309.66;5033596;28;20060;-37
2023/03/02 01:51:36;;;;;;;23.15;14.05;;;;;;;1.30;63.96;102303.56;5051396;28;20048;-38
2023/03/02 01:54:07;;;;;;;22.40;13.98;;;;;;;1.33;63.79;102310.50;5051141;28;20032;-38
2023/03/02 01:56:38;;;;;;;20.30;13.45;;;;;;;1.37;64.56;102309.06;5051516;28;20033;-37
2023/03/02 01:59:09;;;;;;;21.88;13.80;;;;;;;1.34;64.18;102302.09;5051429;28;20028;-39
2023/03/02 02:01:38;;;;;;;22.35;13.88;;;;;;;1.37;64.70;102301.69;5051199;28;20099;-39
2023/03/02 02:04:05;;;;;;;21.70;13.75;;;;;;;1.39;64.96;102287.84;5051374;28;20204;-38
2023/03/02 02:06:36;;;;;;;23.05;14.35;;;;;;;1.16;64.95;102256.38;5051332;28;20436;-38
2023/03/02 02:09:03;;;;;;;23.65;13.95;;;;;;;1.41;65.79;102293.94;5051277;28;20051;-38
2023/03/02 02:11:29;;;;;;;22.08;14.73;;;;;;;1.34;65.04;102293.91;5054666;28;20018;-38
2023/03/02 02:13:58;;;;;;;24.50;15.20;;;;;;;1.19;66.11;102282.38;5054735;28;20036;-37
2023/03/02 02:16:24;;;;;;;23.02;15.15;;;;;;;1.22;67.05;102299.16;5054703;28;20063;-38
2023/03/02 02:18:50;;;;;;;22.88;15.48;;;;;;;1.17;67.33;102292.63;5054781;28;20020;-38
2023/03/02 02:21:16;;;;;;;25.15;16.70;;;;;;;1.16;67.94;102289.09;5054672;28;20035;-38
2023/03/02 02:23:49;;;;;;;24.15;16.17;;;;;;;1.15;68.52;102289.28;5054553;28;20029;-38
2023/03/02 02:26:22;;;;;;;26.42;17.52;;;;;;;1.08;69.43;102278.38;5036494;28;20155;-37
2023/03/02 02:28:56;;;;;;;28.55;17.50;;;;;;;1.08;70.32;102281.13;5054543;28;20036;-38
2023/03/02 02:31:34;;;;;;;26.90;17.23;;;;;;;1.12;70.78;102295.16;5054324;28;20029;-38
2023/03/02 02:34:08;;;;;;;26.65;16.95;;;;;;;1.13;71.96;102281.31;5054463;28;20120;-38
2023/03/02 02:36:37;;;;;;;;;;;;;;;1.27;70.67;102281.34;5055023;28;20032;-38
2023/03/02 02:39:05;;;;;;;29.55;19.33;;;;;;;1.18;72.80;102283.41;5054349;28;19913;-38
2023/03/02 02:41:36;;;;;;;28.77;20.17;;;;;;;1.19;73.34;102283.19;5036326;28;20037;-38
2023/03/02 02:44:02;;;;;;;31.60;21.00;;;;;;;1.15;73.85;102281.97;5054415;28;20159;-39
2023/03/02 02:46:28;;;;;;;33.20;21.33;;;;;;;1.18;74.63;102277.97;5054332;28;20112;-40
2023/03/02 02:48:53;;;;;;;33.45;21.02;;;;;;;1.22;76.92;102273.78;5054363;28;20108;-38
2023/03/02 02:51:26;;;;;;;35.70;22.55;;;;;;;1.16;76.31;102269.16;5036057;28;20477;-38
2023/03/02 02:54:13;;;;;;;33.88;21.70;;;;;;;1.21;77.28;102264.75;5054157;28;20036;-38
2023/03/02 02:56:40;;;;;;;33.38;23.05;;;;;;;1.26;77.38;102269.59;5054175;28;20025;-39
2023/03/02 02:59:15;;;;;;;33.20;22.08;;;;;;;1.27;78.35;102259.53;5054058;28;20025;-38
2023/03/02 03:01:40;;;;;;;36.92;23.98;;;;;;;1.30;77.86;102257.22;5054095;28;20055;-38
2023/03/02 03:04:06;;;;;;;36.92;23.80;;;;;;;1.27;77.67;102265.00;5053997;28;20108;-38
2023/03/02 03:06:37;;;;;;;35.50;23.58;;;;;;;1.23;78.03;102265.41;5053966;28;20062;-38
2023/03/02 03:09:04;;;;;;;35.08;23.83;;;;;;;1.26;78.67;102260.59;5053907;28;20025;-39
2023/03/02 03:11:34;;;;;;;36.58;23.85;;;;;;;1.26;78.48;102255.13;5053844;28;20036;-38
2023/03/02 03:14:20;;;;;;;37.45;24.55;;;;;;;1.35;78.74;102262.06;5053829;28;20044;-39
2023/03/02 03:16:47;;;;;;;38.15;24.13;;;;;;;1.40;78.46;102260.38;5053861;28;20401;-38
2023/03/02 03:19:20;;;;;;;37.60;24.38;;;;;;;1.39;79.15;102260.56;5053767;28;20037;-38
2023/03/02 03:21:48;;;;;;;40.17;25.10;;;;;;;1.40;79.20;102265.84;5052899;28;20393;-38
2023/03/02 03:24:14;;;;;;;36.08;24.98;;;;;;;1.42;79.41;102262.88;5053892;28;20025;-38
2023/03/02 03:26:39;;;;;;;40.92;25.85;;;;;;;1.37;79.13;102257.25;5053620;28;20416;-38
2023/03/02 03:29:04;;;;;;;36.63;24.45;;;;;;;1.33;79.16;102251.34;5053742;28;20032;-38
2023/03/02 03:31:30;;;;;;;38.10;25.27;;;;;;;1.23;79.34;102229.94;5053567;28;20028;-38
2023/03/02 03:33:59;;;;;;;37.38;24.67;;;;;;;1.32;79.85;102266.03;5053619;28;20029;-39
2023/03/02 03:36:27;;;;;;;39.17;25.75;;;;;;;1.26;79.92;102258.69;5041144;28;20465;-38
2023/03/02 03:38:52;;;;;;;38.03;25.50;;;;;;;1.25;80.01;102257.00;5053414;28;20033;-38
2023/03/02 03:41:17;;;;;;;39.05;25.95;;;;;;;1.24;79.82;102258.03;5053285;28;20032;-37
2023/03/02 03:43:43;;;;;;;38.70;24.90;;;;;;;1.26;80.28;102255.94;5053361;28;20036;-38
2023/03/02 03:46:08;;;;;;;36.47;24.85;;;;;;;1.31;80.68;102261.63;5052092;28;20021;-39
2023/03/02 03:48:33;;;;;;;40.67;26.73;;;;;;;1.25;80.12;102254.28;5053307;28;20032;-38
2023/03/02 03:50:59;;;;;;;39.58;26.33;;;;;;;1.22;80.48;102261.00;5053089;28;20025;-38
2023/03/02 03:53:25;;;;;;;38.25;25.50;;;;;;;1.18;80.79;102254.25;5052996;28;20064;-38
2023/03/02 03:55:50;;;;;;;37.30;24.33;;;;;;;1.24;80.85;102255.31;5053044;28;20037;-38
2023/03/02 03:58:16;;;;;;;37.78;25.20;;;;;;;1.24;80.78;102266.22;5053164;28;20480;-39
2023/03/02 04:00:41;;;;;;;39.58;24.85;;;;;;;1.28;80.33;102261.19;5053154;28;20095;-38
2023/03/02 04:03:06;;;;;;;38.50;25.08;;;;;;;1.21;80.28;102256.59;5052873;28;20433;-38
2023/03/02 04:05:32;;;;;;;35.53;24.20;;;;;;;1.24;80.55;102263.50;5052808;28;20107;-38
2023/03/02 04:08:00;;;;;;;38.88;24.95;;;;;;;1.23;80.08;102259.09;5052680;28;20050;-38
2023/03/02 04:10:27;;;;;;;42.10;25.60;;;;;;;1.19;80.04;102260.56;5052538;28;20534;-37
2023/03/02 04:12:53;;;;;;;38.30;25.23;;;;;;;1.12;80.15;102254.28;5052491;28;20504;-37
2023/03/02 04:15:18;;;;;;;38.55;25.38;;;;;;;1.12;80.62;102257.84;5052623;28;20060;-38
2023/03/02 04:17:43;;;;;;;36.80;24.83;;;;;;;1.11;79.92;102258.03;5051075;28;20017;-38
2023/03/02 04:20:15;;;;;;;40.55;26.40;;;;;;;1.01;80.39;102262.03;5052131;28;20111;-37
2023/03/02 04:22:41;;;;;;;38.30;25.15;;;;;;;0.99;80.55;102264.09;5052648;28;20025;-38
2023/03/02 04:25:07;;;;;;;38.63;26.15;;;;;;;0.99;80.87;102258.66;5052510;28;20413;-38
2023/03/02 04:27:32;;;;;;;37.97;24.50;;;;;;;1.01;80.57;102263.88;5052332;28;20068;-37
2023/03/02 04:29:57;;;;;;;36.60;24.33;;;;;;;0.99;80.00;102272.28;5051030;28;20025;-38
2023/03/02 04:32:23;;;;;;;38.72;24.85;;;;;;;0.97;80.21;102274.38;5052148;28;20408;-38
2023/03/02 04:34:48;;;;;;;38.58;24.98;;;;;;;0.91;80.06;102267.84;5052271;28;20404;-37
2023/03/02 04:37:14;;;;;;;35.05;23.40;;;;;;;0.92;80.37;102274.16;5052240;28;20039;-38
2023/03/02 04:39:40;;;;;;;37.03;25.10;;;;;;;0.87;80.30;102271.19;5052310;28;20032;-37
2023/03/02 04:42:05;;;;;;;40.35;26.15;;;;;;;0.88;80.94;102271.00;5052107;28;20101;-38
2023/03/02 04:44:30;;;;;;;35.85;24.02;;;;;;;0.89;80.98;102269.09;5050827;28;20033;-37
2023/03/02 04:46:56;;;;;;;37.17;24.10;;;;;;;0.89;80.00;102272.69;5052236;28;20431;-38
2023/03/02 04:49:21;;;;;;;36.38;24.35;;;;;;;0.88;80.42;102268.28;5052167;28;20179;-37
2023/03/02 04:51:48;;;;;;;38.45;24.13;;;;;;;0.86;80.35;102261.34;5052060;28;20080;-37
2023/03/02 04:54:25;;;;;;;37.30;24.33;;;;;;;0.87;81.04;102266.59;5052100;28;20018;-38
2023/03/02 04:56:50;;;;;;;37.33;24.52;;;;;;;0.82;80.29;102260.91;5052050;28;20024;-38
2023/03/02 04:59:21;;;;;;;38.10;25.02;;;;;;;0.82;80.43;102262.81;5051885;28;20435;-37
2023/03/02 05:01:47;;;;;;;37.80;24.90;;;;;;;0.80;80.82;102259.44;5051865;28;20048;-40
2023/03/02 05:04:13;;;;;;;38.30;24.95;;;;;;;0.73;80.36;102267.59;5051828;28;20477;-37
2023/03/02 05:06:38;;;;;;;39.03;25.35;;;;;;;0.69;81.07;102261.72;5051908;28;20056;-37
2023/03/02 05:09:04;;;;;;;37.60;24.35;;;;;;;0.69;81.61;102267.16;5051992;28;20053;-38
2023/03/02 05:11:30;;;;;;;39.95;25.60;;;;;;;0.77;81.62;102266.97;5051931;28;20037;-38
2023/03/02 05:14:02;;;;;;;39.13;25.55;;;;;;;0.72;81.43;102255.88;5051930;28;20090;-37
2023/03/02 05:16:30;;;;;;;43.90;26.75;;;;;;;0.75;81.36;102271.81;5051814;28;20021;-38
2023/03/02 05:18:57;;;;;;;40.45;25.73;;;;;;;0.78;81.71;102265.09;5052113;28;20017;-38
2023/03/02 05:21:22;;;;;;;40.22;25.58;;;;;;;0.68;82.47;102240.16;5050483;28;20393;-38
2023/03/02 05:23:49;;;;;;;42.55;26.67;;;;;;;0.72;81.81;102255.88;5050427;28;20025;-38
2023/03/02 05:26:15;;;;;;;40.50;26.02;;;;;;;0.82;82.93;102274.53;5051817;28;20029;-38
2023/03/02 05:28:42;;;;;;;41.25;26.63;;;;;;;0.85;81.91;102263.25;5051731;28;20541;-39
2023/03/02 05:31:08;;;;;;;39.45;25.73;;;;;;;0.82;82.10;102266.34;5051728;28;20670;-38
2023/03/02 05:33:33;;;;;;;42.78;27.42;;;;;;;0.77;82.67;102263.44;5051814;28;20082;-38
2023/03/02 05:35:59;;;;;;;44.78;27.83;;;;;;;0.84;83.35;102263.44;5051758;28;20021;-38
2023/03/02 05:38:26;;;;;;;44.05;27.90;;;;;;;0.83;82.63;102262.59;5051775;28;20437;-39
2023/03/02 05:40:52;;;;;;;43.33;27.00;;;;;;;0.83;83.65;102267.22;5051613;28;20476;-39
2023/03/02 05:43:20;;;;;;;44.50;28.20;;;;;;;0.76;83.24;102267.19;5051633;28;20690;-37
2023/03/02 05:45:46;;;;;;;45.13;28.58;;;;;;;0.71;83.03;102258.81;5052687;28;20564;-38
2023/03/02 05:48:13;;;;;;;42.10;26.48;;;;;;;0.70;83.18;102263.41;5054038;28;20146;-38
2023/03/02 05:50:38;;;;;;;44.50;27.45;;;;;;;0.78;84.01;102267.84;5055187;28;20112;-38
2023/03/02 05:53:04;;;;;;;39.90;26.95;;;;;;;0.79;83.23;102258.63;5054978;28;20151;-38
2023/03/02 05:55:29;;;;;;;44.42;27.30;;;;;;;0.88;83.88;102261.97;5055148;28;20366;-38
2023/03/02 05:57:55;;;;;;;42.50;27.48;;;;;;;0.88;83.83;102260.09;5055147;28;20029;-38
2023/03/02 06:00:21;;;;;;;43.20;26.42;;;;;;;0.89;83.76;102260.94;5054741;28;20048;-38
2023/03/02 06:02:47;;;;;;;46.70;28.17;;;;;;;0.84;83.09;102264.28;5055158;28;20399;-38
2023/03/02 06:05:16;;;;;;;43.70;27.98;;;;;;;0.66;82.70;102247.69;5055122;28;20491;-38
2023/03/02 06:07:41;;;;;;;41.20;27.00;;;;;;;0.60;82.81;102250.19;5054974;28;20086;-39
2023/03/02 06:10:09;;;;;;;46.50;27.02;;;;;;;0.64;83.49;102258.78;5055026;28;20029;-37
2023/03/02 06:12:35;;;;;;;45.30;28.42;;;;;;;0.64;82.97;102257.94;5053286;28;20041;-38
2023/03/02 06:15:00;;;;;;;44.92;28.05;;;;;;;0.58;83.78;102263.16;5054810;28;20461;-39
2023/03/02 06:17:26;;;;;;;43.42;27.35;;;;;;;0.53;84.02;102259.38;5055072;28;20562;-38
2023/03/02 06:19:51;;;;;;;44.60;27.35;;;;;;;0.59;85.09;102258.53;5054946;28;20547;-38
2023/03/02 06:22:17;;;;;;;44.28;26.70;;;;;;;0.60;84.10;102268.41;5054038;28;20508;-38
2023/03/02 06:24:42;;;;;;;44.45;26.90;;;;;;;0.61;84.06;102268.19;5054250;28;20036;-38
2023/03/02 06:27:08;;;;;;;44.33;26.02;;;;;;;0.62;83.48;102263.59;5054509;28;20044;-38
2023/03/02 06:29:33;;;;;;;42.22;26.58;;;;;;;0.72;83.82;102264.03;5054578;28;20522;-38
2023/03/02 06:31:58;;;;;;;41.50;26.48;;;;;;;0.68;83.66;102257.31;5054576;28;20540;-38
2023/03/02 06:34:24;;;;;;;43.90;27.38;;;;;;;0.74;82.74;102274.72;5054629;28;20029;-38
2023/03/02 06:36:49;;;;;;;41.92;26.70;;;;;;;0.68;82.79;102275.56;5054503;28;20021;-39
2023/03/02 06:39:15;;;;;;;43.92;26.85;;;;;;;0.61;83.18;102272.81;5053675;28;20029;-38
2023/03/02 06:41:42;;;;;;;42.42;25.88;;;;;;;0.62;83.91;102264.41;5052820;28;20029;-38
2023/03/02 06:44:07;;;;;;;46.05;27.20;;;;;;;0.64;82.92;102279.72;5052697;28;20052;-38
2023/03/02 06:46:32;;;;;;;44.55;27.13;;;;;;;0.59;83.28;102278.47;5054010;28;20029;-38
2023/03/02 06:48:58;;;;;;;45.10;26.60;;;;;;;0.52;82.19;102277.56;5054362;28;20025;-39
2023/03/02 06:51:23;;;;;;;43.00;25.90;;;;;;;0.50;83.33;102282.41;5053943;28;20521;-38
2023/03/02 06:53:48;;;;;;;42.13;25.85;;;;;;;0.60;83.74;102277.41;5054030;28;20067;-38
2023/03/02 06:56:14;;;;;;;42.67;24.90;;;;;;;0.70;84.22;102284.38;5052944;28;20074;-38
2023/03/02 06:58:39;;;;;;;48.03;27.15;;;;;;;0.77;82.43;102283.31;5054081;28;20021;-37
2023/03/02 07:01:06;;;;;;;41.85;25.65;;;;;;;0.87;83.80;102282.09;5054181;28;20394;-38
2023/03/02 07:03:32;;;;;;;42.35;25.08;;;;;;;1.11;83.68;102288.03;5036059;28;20104;-37
2023/03/02 07:05:57;;;;;;;43.55;24.00;;;;;;;1.37;84.98;102292.69;5054196;28;20146;-38
2023/03/02 07:08:22;;;;;;;42.47;24.80;;;;;;;1.39;82.93;102279.66;5035876;28;20021;-38
2023/03/02 07:10:48;;;;;;;41.17;26.27;;;;;;;1.50;82.83;102291.84;5052889;28;20017;-40
2023/03/02 07:13:14;;;;;;;46.33;26.30;;;;;;;1.56;81.32;102299.19;5053573;28;20488;-38
2023/03/02 07:15:39;;;;;;;40.40;25.33;;;;;;;1.60;80.23;102302.31;5053978;28;20033;-38
2023/03/02 07:18:05;;;;;;;41.60;25.48;;;;;;;1.53;80.25;102294.13;5053993;28;20547;-38
2023/03/02 07:20:30;;;;;;;40.75;25.23;;;;;;;1.55;79.40;102294.78;5067680;28;20108;-37
2023/03/02 07:22:56;;;;;;;42.28;25.73;;;;;;;1.56;79.57;102291.81;5056105;28;20036;-38
2023/03/02 07:25:21;;;;;;;40.85;25.63;;;;;;;1.65;79.52;102299.81;5052604;28;20044;-38
2023/03/02 07:27:46;;;;;;;40.70;25.85;;;;;;;1.61;78.74;102291.19;5051069;28;20056;-38
2023/03/02 07:30:13;;;;;;;42.53;25.77;;;;;;;1.56;78.85;102297.28;5052260;28;20075;-38
2023/03/02 07:32:39;;;;;;;41.50;26.70;;;;;;;1.56;78.80;102304.63;5052791;28;20028;-38
2023/03/02 07:35:05;;;;;;;40.55;25.77;;;;;;;1.54;78.86;102293.09;5052435;28;20028;-38
2023/03/02 07:37:30;;;;;;;42.58;26.63;;;;;;;1.58;78.54;102294.38;5052282;28;20024;-38
2023/03/02 07:39:56;;;;;;;44.00;26.38;;;;;;;1.60;78.40;102295.00;5052507;28;20104;-38
2023/03/02 07:42:21;;;;;;;46.25;26.80;;;;;;;1.68;78.04;102285.75;5052467;28;20456;-38
2023/03/02 07:44:46;;;;;;;42.20;25.83;;;;;;;1.71;78.28;102299.78;5052586;28;20033;-38
2023/03/02 07:47:12;;;;;;;42.80;25.80;;;;;;;1.70;78.23;102298.13;5051353;28;20048;-38
2023/03/02 07:49:37;;;;;;;43.10;27.40;;;;;;;1.74;78.25;102304.03;5048700;28;20095;-38
2023/03/02 07:52:03;;;;;;;42.78;24.52;;;;;;;1.79;78.86;102296.03;5051933;28;20510;-38
2023/03/02 07:54:29;;;;;;;38.50;23.65;;;;;;;1.86;79.94;102288.66;5051963;28;20029;-37
2023/03/02 07:56:57;;;;;;;36.92;22.88;;;;;;;1.96;80.10;102301.03;5051781;28;20053;-39
2023/03/02 07:59:23;;;;;;;38.85;23.20;;;;;;;2.12;81.06;102297.88;5034048;28;20058;-38
2023/03/02 08:01:49;;;;;;;39.85;23.40;;;;;;;2.39;80.95;102303.25;5051391;28;20024;-40
2023/03/02 08:04:14;;;;;;;37.40;23.25;;;;;;;2.46;78.67;102292.28;5051391;28;20029;-38
2023/03/02 08:06:40;;;;;;;36.10;22.77;;;;;;;2.49;79.42;102295.44;5033779;28;20480;-38
2023/03/02 08:09:05;;;;;;;34.58;21.90;;;;;;;2.56;79.39;102298.13;5051192;28;20032;-38
2023/03/02 08:11:30;;;;;;;37.08;22.42;;;;;;;2.69;78.29;102293.69;5049219;28;20025;-38
2023/03/02 08:13:59;;;;;;;36.03;21.88;;;;;;;2.85;77.96;102297.81;5049915;28;20037;-38
2023/03/02 08:16:25;;;;;;;36.88;22.77;;;;;;;2.89;76.34;102288.09;5060513;28;20028;-38
2023/03/02 08:18:50;;;;;;;40.17;23.60;;;;;;;2.88;76.47;102280.97;5069010;28;20028;-38
2023/03/02 08:21:19;;;;;;;38.42;23.35;;;;;;;2.82;75.73;102279.97;5068834;28;20036;-40
2023/03/02 08:23:44;;;;;;;37.30;21.92;;;;;;;2.93;75.80;102284.72;5068997;28;20037;-39
2023/03/02 08:26:11;;;;;;;32.58;20.80;;;;;;;3.00;76.68;102298.34;5069573;28;20036;-40
2023/03/02 08:28:36;;;;;;;39.25;23.42;;;;;;;2.99;75.02;102285.72;5050091;28;20056;-38
2023/03/02 08:31:02;;;;;;;36.22;22.17;;;;;;;2.99;73.74;102290.38;5053668;28;20186;-38
2023/03/02 08:33:29;;;;;;;35.90;21.88;;;;;;;3.08;74.65;102283.59;5050116;28;20060;-38
2023/03/02 08:36:05;;;;;;;35.83;20.73;;;;;;;3.20;75.05;102295.50;5051239;28;20052;-38
2023/03/02 08:38:31;;;;;;;33.53;20.88;;;;;;;3.23;72.49;102292.31;5032719;28;20029;-38
2023/03/02 08:40:57;;;;;;;35.15;21.20;;;;;;;3.30;73.74;102284.06;5050785;28;20048;-39
2023/03/02 08:43:24;;;;;;;33.63;21.70;;;;;;;3.39;73.22;102288.19;5050896;28;20060;-38
2023/03/02 08:45:51;;;;;;;32.92;19.52;;;;;;;3.53;73.67;102279.91;5033029;28;20044;-38
2023/03/02 08:48:17;;;;;;;35.30;20.83;;;;;;;3.59;72.58;102284.47;5050812;28;20037;-38
2023/03/02 08:50:42;;;;;;;29.83;18.23;;;;;;;3.79;72.90;102286.19;5050806;28;20044;-38
2023/03/02 08:53:07;;;;;;;31.50;19.70;;;;;;;3.76;69.31;102276.53;5050783;28;20021;-38
2023/03/02 08:55:36;;;;;;;33.42;19.77;;;;;;;3.79;69.71;102281.53;5050890;28;20037;-38
2023/03/02 08:58:03;;;;;;;30.63;19.73;;;;;;;3.85;69.09;102286.13;5050852;28;20021;-39
2023/03/02 09:00:28;;;;;;;33.38;19.70;;;;;;;3.93;68.37;102287.72;5050299;28;20082;-38
2023/03/02 09:02:54;;;;;;;29.88;18.42;;;;;;;4.06;69.13;102278.56;5050149;28;20024;-38
2023/03/02 09:05:19;;;;;;;32.03;19.60;;;;;;;4.16;68.08;102275.28;5050285;28;20082;-38
2023/03/02 09:07:44;;;;;;;30.00;18.55;;;;;;;4.28;67.99;102269.88;5050842;28;20036;-38
2023/03/02 09:10:10;;;;;;;30.20;18.85;;;;;;;4.32;66.55;102276.59;5050648;28;20085;-38
2023/03/02 09:12:35;;;;;;;32.42;19.27;;;;;;;4.36;65.54;102280.53;5050589;28;20029;-38
2023/03/02 09:15:00;;;;;;;29.88;18.70;;;;;;;4.36;66.09;102275.91;5050627;28;20084;-38
2023/03/02 09:17:25;;;;;;;28.58;17.48;;;;;;;4.48;67.47;102275.13;5050763;28;20102;-38
2023/03/02 09:19:51;;;;;;;34.15;20.55;;;;;;;4.49;65.01;102277.63;5051735;28;20036;-38
2023/03/02 09:22:17;;;;;;;32.42;19.58;;;;;;;4.51;64.64;102271.91;5054695;28;20029;-39
2023/03/02 09:24:42;;;;;;;31.05;20.33;;;;;;;4.49;64.94;102274.88;5054916;28;20116;-38
2023/03/02 09:27:08;;;;;;;30.50;19.63;;;;;;;4.51;65.10;102283.72;5054260;28;20033;-39
2023/03/02 09:29:33;;;;;;;30.90;20.10;;;;;;;4.59;63.98;102276.25;5052373;28;20470;-38
2023/03/02 09:31:58;;;;;;;28.20;17.67;;;;;;;4.74;65.13;102271.19;5053890;28;20031;-38
2023/03/02 09:34:24;;;;;;;30.17;18.80;;;;;;;4.76;63.54;102271.81;5053910;28;20020;-38
2023/03/02 09:36:49;;;;;;;30.10;19.30;;;;;;;4.75;64.07;102269.31;5053992;28;20037;-38
2023/03/02 09:39:14;;;;;;;25.63;17.65;;;;;;;4.86;64.03;102274.00;5054154;28;20354;-38
2023/03/02 09:41:58;;;;;;;27.63;17.75;;;;;;;4.97;63.02;102277.84;5053799;28;20458;-38
2023/03/02 09:44:49;;;;;;;26.98;16.90;;;;;;;5.12;63.94;102281.00;5053807;28;20033;-38
2023/03/02 09:47:26;;;;;;;28.08;17.55;;;;;;;5.17;62.28;102265.75;5053674;28;20557;-39
2023/03/02 09:50:04;;;;;;;27.52;17.65;;;;;;;5.24;62.68;102271.97;5055780;28;20496;-38
2023/03/02 09:52:37;;;;;;;30.40;19.33;;;;;;;5.12;60.41;102260.97;5073267;28;20032;-42
2023/03/02 09:55:22;;;;;;;28.33;17.33;;;;;;;5.18;62.21;102270.16;5073244;28;20024;-38
2023/03/02 09:57:48;;;;;;;29.42;18.13;;;;;;;5.28;61.01;102271.25;5073072;28;20040;-39
2023/03/02 10:00:22;;;;;;;28.60;17.60;;;;;;;5.38;61.29;102262.47;5073082;28;20044;-37
2023/03/02 10:02:58;;;;;;;29.05;18.55;;;;;;;5.42;60.72;102263.63;5073401;28;20024;-39
2023/03/02 10:05:40;;;;;;;29.58;18.15;;;;;;;5.47;59.35;102274.75;5073635;28;20177;-39
2023/03/02 10:08:15;;;;;;;26.13;16.95;;;;;;;5.61;61.14;102275.38;5073429;28;20043;-39
2023/03/02 10:10:49;;;;;;;28.98;18.27;;;;;;;5.69;59.24;102271.41;5073344;28;20032;-38
2023/03/02 10:13:42;;;;;;;29.00;18.15;;;;;;;5.73;59.62;102274.53;5073310;28;20028;-38
2023/03/02 10:16:22;;;;;;;25.92;16.48;;;;;;;5.75;60.14;102261.41;5073096;28;20028;-37
2023/03/02 10:19:19;;;;;;;26.30;16.85;;;;;;;5.78;58.08;102270.00;5072986;28;20124;-38
2023/03/02 10:21:46;;;;;;;27.05;17.23;;;;;;;5.82;56.91;102264.84;5073033;28;20037;-38
2023/03/02 10:24:23;;;;;;;25.73;16.63;;;;;;;5.85;57.29;102261.63;5072879;28;20115;-38
2023/03/02 10:26:53;;;;;;;28.67;16.90;;;;;;;5.94;57.79;102259.38;5072889;28;20086;-39
2023/03/02 10:29:30;;;;;;;26.77;17.20;;;;;;;5.98;57.21;102263.28;5070595;28;20028;-37
2023/03/02 10:32:03;;;;;;;27.92;17.48;;;;;;;5.94;57.24;102259.38;5034582;28;20067;-39
2023/03/02 10:34:29;;;;;;;26.85;16.63;;;;;;;6.07;57.89;102277.53;5053273;28;20033;-38
2023/03/02 10:36:56;;;;;;;28.52;17.83;;;;;;;5.99;57.01;102258.66;5053145;28;20134;-38
2023/03/02 10:39:22;;;;;;;26.60;16.88;;;;;;;6.12;57.08;102263.09;5052971;28;20232;-39
2023/03/02 10:41:57;;;;;;;29.95;17.30;;;;;;;6.18;57.73;102259.38;5035329;28;20473;-38
2023/03/02 10:44:37;;;;;;;27.33;17.73;;;;;;;6.26;56.33;102263.66;5053161;28;20044;-38
2023/03/02 10:47:03;;;;;;;27.00;17.10;;;;;;;6.18;55.73;102251.13;5053194;28;20035;-39
2023/03/02 10:49:32;;;;;;;27.13;17.85;;;;;;;6.21;55.39;102245.16;5052903;28;20029;-38
2023/03/02 10:52:11;;;;;;;28.80;17.48;;;;;;;6.27;54.61;102241.41;5052381;28;20033;-38
2023/03/02 10:54:36;;;;;;;24.73;15.70;;;;;;;6.55;59.66;102243.38;5052612;28;20068;-38
2023/03/02 10:57:04;;;;;;;25.55;17.15;;;;;;;6.49;55.02;102238.84;5052667;28;20077;-38
2023/03/02 10:59:42;;;;;;;27.48;18.08;;;;;;;6.62;56.01;102245.16;5052729;28;20040;-38
2023/03/02 11:02:22;;;;;;;25.60;16.63;;;;;;;6.72;56.67;102243.41;5069739;28;20492;-38
2023/03/02 11:04:53;;;;;;;28.00;17.48;;;;;;;6.56;55.55;102213.97;5073229;28;20029;-39
2023/03/02 11:07:22;;;;;;;27.48;17.65;;;;;;;6.72;53.04;102235.16;5073099;28;20024;-38
2023/03/02 11:10:17;;;;;;;27.58;17.65;;;;;;;6.75;55.40;102228.38;5072940;28;20033;-39
2023/03/02 11:12:48;;;;;;;25.23;16.92;;;;;;;6.83;53.88;102229.84;5072786;28;20032;-39
2023/03/02 11:15:25;;;;;;;25.95;17.08;;;;;;;6.91;54.78;102236.88;5071795;28;20451;-39
2023/03/02 11:18:04;;;;;;;25.60;17.00;;;;;;;6.94;55.40;102228.97;5052688;28;20044;-39
2023/03/02 11:20:33;;;;;;;25.65;17.35;;;;;;;6.97;53.63;102231.25;5052648;28;20048;-39